Time;durP1;ratioP1;P1;durP2;ratioP2;P2;SDS_P1;SDS_P2;PMS_P1;PMS_P2;Temp;Humidity;BMP_temperature;BMP_pressure;BME280_temperature;BME280_humidity;BME280_pressure;Samples;Min_cycle;Max_cycle;Signal;HPM_P1;HPM_P2
2023/10/31 00:00:32;;;;;;;8.20;4.80;;;;;;;9.82;100.00;100863.85;110050;1238;59745;-73
2023/10/31 00:03:21;;;;;;;14.20;5.00;;;;;;;9.75;100.00;100864.64;110032;1238;75578;-71
2023/10/31 00:05:49;;;;;;;9.50;5.20;;;;;;;9.69;100.00;100865.92;109887;1241;62851;-72
2023/10/31 00:08:18;;;;;;;7.50;4.20;;;;;;;9.61;100.00;100852.05;109944;1238;60109;-71
2023/10/31 00:10:47;;;;;;;9.40;4.30;;;;;;;9.64;100.00;100856.02;110061;1238;73452;-70
2023/10/31 00:13:16;;;;;;;9.50;4.90;;;;;;;9.62;100.00;100852.83;110041;1238;72468;-71
2023/10/31 00:15:44;;;;;;;7.60;4.60;;;;;;;9.57;100.00;100845.17;110004;1238;70115;-71
2023/10/31 00:18:13;;;;;;;9.70;4.90;;;;;;;9.52;100.00;100842.20;110052;1238;63623;-71
2023/10/31 00:20:42;;;;;;;9.70;4.50;;;;;;;9.51;100.00;100855.61;110034;1238;62718;-74
2023/10/31 00:23:11;;;;;;;13.90;5.00;;;;;;;9.52;100.00;100854.54;110020;1238;60531;-72
2023/10/31 00:25:39;;;;;;;11.00;5.80;;;;;;;9.50;100.00;100853.28;109929;1238;73994;-72
2023/10/31 00:28:08;;;;;;;7.50;4.40;;;;;;;9.46;100.00;100852.66;110014;1238;61895;-71
2023/10/31 00:30:37;;;;;;;12.30;5.00;;;;;;;9.43;100.00;100857.72;110018;1238;69601;-70
2023/10/31 00:33:05;;;;;;;8.30;4.80;;;;;;;9.37;100.00;100854.16;109940;1238;65135;-70
2023/10/31 00:35:34;;;;;;;10.30;4.40;;;;;;;9.37;100.00;100849.30;109945;1241;58211;-71
2023/10/31 00:38:03;;;;;;;8.80;4.40;;;;;;;9.39;100.00;100841.98;110061;1238;58170;-71
2023/10/31 00:40:32;;;;;;;8.40;4.30;;;;;;;9.47;100.00;100832.96;110069;1238;63262;-71
2023/10/31 00:43:01;;;;;;;10.00;4.60;;;;;;;9.42;100.00;100831.04;109928;1238;71017;-71
2023/10/31 00:45:30;;;;;;;8.90;4.10;;;;;;;9.39;100.00;100825.31;110082;1238;70577;-71
2023/10/31 00:47:58;;;;;;;13.10;4.90;;;;;;;9.35;100.00;100822.27;109788;1238;74468;-71
2023/10/31 00:50:28;;;;;;;9.20;4.80;;;;;;;9.33;100.00;100819.46;110037;1241;63173;-71
2023/10/31 00:52:57;;;;;;;10.10;5.00;;;;;;;9.31;100.00;100814.73;110004;1238;58278;-71
2023/10/31 00:55:26;;;;;;;9.60;4.70;;;;;;;9.28;100.00;100814.94;110105;1238;62936;-71
2023/10/31 00:57:55;;;;;;;8.20;4.40;;;;;;;9.19;100.00;100814.65;109905;1240;72123;-71
2023/10/31 01:00:24;;;;;;;10.80;4.40;;;;;;;9.17;100.00;100816.65;109972;1238;69826;-70
2023/10/31 01:02:52;;;;;;;8.00;3.90;;;;;;;9.16;100.00;100817.75;109949;1238;74581;-71
2023/10/31 01:05:21;;;;;;;7.70;4.40;;;;;;;9.11;100.00;100813.41;109915;1239;62320;-71
2023/10/31 01:07:50;;;;;;;9.40;4.30;;;;;;;9.05;100.00;100813.98;109947;1238;57865;-71
2023/10/31 01:10:19;;;;;;;13.50;5.20;;;;;;;9.01;100.00;100814.90;110054;1238;72084;-72
2023/10/31 01:12:47;;;;;;;11.50;4.30;;;;;;;9.00;100.00;100813.09;109807;1238;72427;-70
2023/10/31 01:15:17;;;;;;;9.60;4.70;;;;;;;9.00;100.00;100811.52;110137;1238;60144;-71
2023/10/31 01:17:45;;;;;;;8.60;4.20;;;;;;;9.05;100.00;100809.26;110028;1238;73086;-72
2023/10/31 01:20:14;;;;;;;12.80;5.00;;;;;;;9.10;100.00;100805.14;110133;1238;57751;-71
2023/10/31 01:22:43;;;;;;;8.30;4.40;;;;;;;9.13;100.00;100799.23;110179;1238;58306;-72
2023/10/31 01:25:12;;;;;;;10.70;4.70;;;;;;;9.14;100.00;100799.70;109970;1239;63272;-72
2023/10/31 01:27:41;;;;;;;11.10;5.50;;;;;;;9.09;100.00;100795.67;110038;1238;71165;-71
2023/10/31 01:30:11;;;;;;;10.70;4.90;;;;;;;9.05;100.00;100795.02;109968;1238;60436;-71
2023/10/31 01:32:40;;;;;;;8.70;4.20;;;;;;;9.02;100.00;100792.08;110160;1238;62281;-71
2023/10/31 01:35:09;;;;;;;9.00;5.10;;;;;;;8.99;100.00;100788.10;110023;1241;57734;-72
2023/10/31 01:37:38;;;;;;;7.20;4.30;;;;;;;8.92;100.00;100783.02;110214;1240;58607;-71
2023/10/31 01:40:08;;;;;;;11.50;4.40;;;;;;;8.90;100.00;100780.55;110150;1238;63608;-73
2023/10/31 01:42:36;;;;;;;8.80;4.40;;;;;;;8.90;100.00;100783.85;110050;1238;71219;-74
2023/10/31 01:45:07;;;;;;;10.80;4.50;;;;;;;8.88;100.00;100781.52;109887;1238;70819;-73
2023/10/31 01:47:35;;;;;;;9.10;4.40;;;;;;;8.86;100.00;100778.90;109758;1238;74827;-73
2023/10/31 01:50:07;;;;;;;8.10;4.10;;;;;;;8.78;100.00;100771.59;109915;1239;57790;-73
2023/10/31 01:52:37;;;;;;;11.80;4.70;;;;;;;8.81;100.00;100777.13;109803;1238;61004;-73
2023/10/31 01:55:08;;;;;;;10.30;5.00;;;;;;;8.74;100.00;100776.14;109730;1238;73783;-73
2023/10/31 01:57:37;;;;;;;10.10;5.40;;;;;;;8.71;100.00;100775.67;109976;1238;61189;-72
2023/10/31 02:00:07;;;;;;;11.00;4.90;;;;;;;8.66;100.00;100773.74;109951;1241;58967;-71
2023/10/31 02:02:45;;;;;;;12.00;4.80;;;;;;;8.62;100.00;100774.52;109949;1238;73776;-71
2023/10/31 02:05:14;;;;;;;7.70;4.20;;;;;;;8.61;100.00;100771.66;109790;1238;62657;-73
2023/10/31 02:07:45;;;;;;;9.50;4.40;;;;;;;8.56;100.00;100770.06;109941;1238;57796;-73
2023/10/31 02:10:14;;;;;;;8.40;4.80;;;;;;;8.53;100.00;100772.98;109818;1238;73616;-72
2023/10/31 02:12:42;;;;;;;10.00;4.60;;;;;;;8.49;100.00;100773.39;109939;1238;71479;-72
2023/10/31 02:15:11;;;;;;;7.40;4.20;;;;;;;8.46;100.00;100773.80;109945;1238;60429;-72
2023/10/31 02:17:40;;;;;;;8.20;5.00;;;;;;;8.39;100.00;100767.64;109993;1238;62204;-73
2023/10/31 02:20:09;;;;;;;10.00;5.20;;;;;;;8.33;100.00;100771.59;110017;1238;62629;-73
2023/10/31 02:22:38;;;;;;;10.40;5.60;;;;;;;8.25;100.00;100767.94;109836;1238;61401;-72
2023/10/31 02:25:18;;;;;;;11.40;5.10;;;;;;;8.25;100.00;100771.77;109980;1238;72831;-72
2023/10/31 02:27:47;;;;;;;10.60;5.10;;;;;;;8.27;100.00;100773.56;110093;1238;71954;-72
2023/10/31 02:30:15;;;;;;;12.10;4.80;;;;;;;8.26;100.00;100771.71;109851;1238;60283;-71
2023/10/31 02:32:44;;;;;;;6.60;4.10;;;;;;;8.29;100.00;100767.67;109992;1238;63627;-72
2023/10/31 02:35:18;;;;;;;10.10;4.70;;;;;;;8.36;100.00;100766.94;110047;1239;57844;-72
2023/10/31 02:37:47;;;;;;;9.60;5.20;;;;;;;8.29;100.00;100763.89;109941;1238;60134;-72
2023/10/31 02:40:16;;;;;;;10.60;6.10;;;;;;;8.26;100.00;100765.25;109835;1238;63238;-72
2023/10/31 02:42:45;;;;;;;11.90;5.40;;;;;;;8.27;100.00;100765.92;109812;1240;60707;-72
2023/10/31 02:45:14;;;;;;;8.00;4.90;;;;;;;8.23;100.00;100768.23;109811;1238;69406;-72
2023/10/31 02:47:43;;;;;;;9.90;5.20;;;;;;;8.17;100.00;100771.53;109684;1238;73228;-72
2023/10/31 02:50:11;;;;;;;8.70;5.30;;;;;;;8.12;100.00;100774.63;109797;1238;58382;-72
2023/10/31 02:52:40;;;;;;;10.50;5.00;;;;;;;8.08;100.00;100772.08;109917;1241;58333;-71
2023/10/31 02:55:09;;;;;;;8.00;4.40;;;;;;;8.08;100.00;100768.81;110032;1238;73515;-72
2023/10/31 02:57:38;;;;;;;8.50;4.70;;;;;;;8.06;100.00;100761.11;109923;1240;61993;-71
2023/10/31 03:00:07;;;;;;;10.50;5.10;;;;;;;8.03;100.00;100763.40;110035;1239;59788;-72
2023/10/31 03:02:36;;;;;;;9.00;5.50;;;;;;;8.02;100.00;100761.19;109968;1241;63121;-71
2023/10/31 03:05:06;;;;;;;9.90;5.50;;;;;;;8.03;100.00;100757.02;109905;1239;57839;-73
2023/10/31 03:07:35;;;;;;;10.00;5.10;;;;;;;8.02;100.00;100756.34;110029;1238;60179;-73
2023/10/31 03:10:04;;;;;;;12.80;5.60;;;;;;;8.02;100.00;100756.15;109946;1238;74481;-71
2023/10/31 03:12:33;;;;;;;11.80;5.70;;;;;;;8.00;100.00;100755.73;110040;1238;72493;-71
2023/10/31 03:15:03;;;;;;;9.90;5.80;;;;;;;7.94;100.00;100756.80;109911;1238;71142;-72
2023/10/31 03:17:32;;;;;;;8.20;4.80;;;;;;;7.92;100.00;100757.97;109843;1242;63914;-72
2023/10/31 03:20:00;;;;;;;13.20;5.40;;;;;;;7.91;100.00;100758.57;110076;1240;61284;-72
2023/10/31 03:22:29;;;;;;;9.90;5.50;;;;;;;7.91;100.00;100759.44;110039;1241;58384;-72
2023/10/31 03:24:58;;;;;;;7.90;4.50;;;;;;;7.89;100.00;100755.41;109946;1241;63545;-72
2023/10/31 03:27:27;;;;;;;10.00;4.90;;;;;;;7.86;100.00;100753.97;110073;1238;60904;-72
2023/10/31 03:29:56;;;;;;;12.70;7.40;;;;;;;7.83;100.00;100759.23;109941;1238;70327;-72
2023/10/31 03:32:24;;;;;;;10.80;5.20;;;;;;;7.79;100.00;100755.14;109938;1238;64708;-72
2023/10/31 03:34:53;;;;;;;8.70;5.60;;;;;;;7.79;100.00;100757.05;109928;1241;57811;-73
2023/10/31 03:37:22;;;;;;;9.80;5.30;;;;;;;7.70;100.00;100753.22;109932;1241;60711;-72
2023/10/31 03:39:50;;;;;;;12.70;5.70;;;;;;;7.66;100.00;100754.50;109953;1240;73945;-74
2023/10/31 03:42:19;;;;;;;9.50;5.60;;;;;;;7.65;100.00;100750.07;109941;1241;61033;-72
2023/10/31 03:44:48;;;;;;;8.60;5.50;;;;;;;7.67;100.00;100748.04;109858;1242;59797;-78
2023/10/31 03:47:17;;;;;;;10.10;5.40;;;;;;;7.68;100.00;100746.26;109826;1239;73609;-72
2023/10/31 03:49:45;;;;;;;11.00;5.20;;;;;;;7.63;100.00;100744.09;109903;1242;62326;-71
2023/10/31 03:52:14;;;;;;;10.90;5.90;;;;;;;7.61;100.00;100744.10;109930;1241;57655;-70
2023/10/31 03:54:43;;;;;;;10.50;5.50;;;;;;;7.62;100.00;100743.16;109802;1241;64935;-70
2023/10/31 03:57:13;;;;;;;9.20;5.50;;;;;;;7.57;100.00;100737.04;109783;1242;61609;-71
2023/10/31 03:59:42;;;;;;;11.30;5.10;;;;;;;7.52;100.00;100733.36;109768;1241;67846;-71
2023/10/31 04:02:10;;;;;;;11.30;5.40;;;;;;;7.45;100.00;100729.60;109684;1242;74005;-71
2023/10/31 04:04:39;;;;;;;10.60;5.10;;;;;;;7.39;100.00;100728.02;109499;1245;58267;-70
2023/10/31 04:07:08;;;;;;;8.90;5.00;;;;;;;7.33;100.00;100727.37;109704;1242;58178;-70
2023/10/31 04:09:37;;;;;;;10.40;4.90;;;;;;;7.28;100.00;100728.91;109791;1239;74313;-71
2023/10/31 04:12:06;;;;;;;10.80;5.40;;;;;;;7.25;100.00;100729.05;109762;1241;61149;-71
2023/10/31 04:14:35;;;;;;;10.80;5.40;;;;;;;7.21;100.00;100727.54;109810;1241;59775;-71
2023/10/31 04:17:04;;;;;;;9.30;5.00;;;;;;;7.18;100.00;100726.98;109778;1241;72923;-71
2023/10/31 04:19:33;;;;;;;8.50;5.20;;;;;;;7.17;100.00;100724.83;109538;1243;57845;-71
2023/10/31 04:22:02;;;;;;;9.50;5.30;;;;;;;7.20;100.00;100721.87;109796;1239;58318;-70
2023/10/31 04:24:31;;;;;;;11.80;5.70;;;;;;;7.24;100.00;100721.48;109810;1239;62734;-71
2023/10/31 04:27:00;;;;;;;14.10;5.70;;;;;;;7.26;100.00;100721.35;110005;1238;60649;-71
2023/10/31 04:29:29;;;;;;;10.00;5.60;;;;;;;7.31;100.00;100716.36;109932;1239;70446;-71
2023/10/31 04:31:57;;;;;;;14.60;7.70;;;;;;;7.29;100.00;100724.15;109936;1239;73064;-72
2023/10/31 04:34:26;;;;;;;13.70;7.80;;;;;;;7.28;100.00;100718.84;109912;1241;58316;-71
2023/10/31 04:36:55;;;;;;;13.50;6.10;;;;;;;7.32;100.00;100711.34;109858;1241;57775;-70
2023/10/31 04:39:24;;;;;;;8.90;5.80;;;;;;;7.33;100.00;100713.36;109783;1240;74170;-71
2023/10/31 04:41:52;;;;;;;11.10;6.00;;;;;;;7.37;100.00;100711.38;109695;1241;63908;-70
2023/10/31 04:44:21;;;;;;;15.90;6.40;;;;;;;7.33;100.00;100712.63;109813;1238;59804;-71
2023/10/31 04:46:50;;;;;;;15.80;6.40;;;;;;;7.31;100.00;100707.36;109759;1239;64071;-71
2023/10/31 04:49:20;;;;;;;15.50;6.70;;;;;;;7.38;100.00;100713.89;109764;1241;57811;-70
2023/10/31 04:51:49;;;;;;;12.60;6.70;;;;;;;7.39;100.00;100713.86;109715;1241;60170;-70
2023/10/31 04:54:17;;;;;;;14.70;6.50;;;;;;;7.40;100.00;100711.66;109786;1241;74541;-69
2023/10/31 04:56:47;;;;;;;21.20;6.70;;;;;;;7.44;100.00;100709.22;109762;1241;61878;-69
2023/10/31 04:59:16;;;;;;;15.80;6.30;;;;;;;7.48;100.00;100709.66;109790;1239;61026;-71
2023/10/31 05:01:50;;;;;;;16.70;7.20;;;;;;;7.54;100.00;100710.33;109625;1242;62347;-69
2023/10/31 05:04:19;;;;;;;11.10;6.10;;;;;;;7.61;100.00;100708.54;109500;1242;62159;-71
2023/10/31 05:06:48;;;;;;;13.70;6.00;;;;;;;7.68;100.00;100712.81;109754;1241;58097;-70
2023/10/31 05:09:17;;;;;;;18.60;6.70;;;;;;;7.79;100.00;100715.63;109600;1241;72663;-72
2023/10/31 05:11:47;;;;;;;16.70;6.90;;;;;;;7.87;100.00;100713.40;109640;1242;72738;-68
2023/10/31 05:14:15;;;;;;;15.00;7.00;;;;;;;7.98;100.00;100712.52;109751;1240;70591;-71
2023/10/31 05:16:44;;;;;;;12.80;6.60;;;;;;;8.05;100.00;100707.27;109745;1242;63484;-71
2023/10/31 05:19:13;;;;;;;13.90;6.50;;;;;;;8.11;100.00;100704.61;109760;1241;58332;-71
2023/10/31 05:21:42;;;;;;;16.20;6.80;;;;;;;8.20;100.00;100705.12;109796;1240;61178;-75
2023/10/31 05:24:10;;;;;;;20.10;7.10;;;;;;;8.30;100.00;100703.08;109776;1239;74148;-68
2023/10/31 05:26:42;;;;;;;12.70;7.10;;;;;;;8.40;100.00;100700.77;109776;1241;62059;-71
2023/10/31 05:29:12;;;;;;;14.10;7.30;;;;;;;8.50;100.00;100702.57;109558;1241;59855;-69
2023/10/31 05:31:41;;;;;;;17.30;6.90;;;;;;;8.59;100.00;100700.26;109729;1241;73571;-72
2023/10/31 05:34:10;;;;;;;17.80;7.80;;;;;;;8.67;100.00;100700.20;109769;1239;58310;-70
2023/10/31 05:36:39;;;;;;;17.70;7.20;;;;;;;8.79;100.00;100696.70;109901;1238;59622;-71
2023/10/31 05:39:08;;;;;;;16.60;6.40;;;;;;;8.90;100.00;100699.27;109540;1238;74846;-70
2023/10/31 05:41:37;;;;;;;12.00;6.50;;;;;;;9.11;100.00;100699.30;109895;1238;72228;-70
2023/10/31 05:44:05;;;;;;;18.50;7.80;;;;;;;9.26;100.00;100694.94;109891;1239;70994;-71
2023/10/31 05:46:41;;;;;;;13.50;7.50;;;;;;;9.35;100.00;100694.73;110016;1238;62729;-71
2023/10/31 05:49:10;;;;;;;20.70;7.60;;;;;;;9.45;100.00;100695.27;109960;1241;58329;-71
2023/10/31 05:51:39;;;;;;;15.60;7.20;;;;;;;9.55;100.00;100693.35;109816;1238;58202;-70
2023/10/31 05:54:08;;;;;;;17.50;7.40;;;;;;;9.66;100.00;100694.50;110072;1238;62964;-68
2023/10/31 05:56:37;;;;;;;12.40;6.60;;;;;;;9.77;100.00;100690.80;109923;1238;72495;-68
2023/10/31 05:59:05;;;;;;;17.90;7.40;;;;;;;9.91;100.00;100681.30;109985;1239;70672;-68
2023/10/31 06:01:34;;;;;;;18.90;7.80;;;;;;;10.05;100.00;100681.53;109921;1239;63473;-67
2023/10/31 06:04:03;;;;;;;19.30;7.30;;;;;;;10.20;100.00;100683.08;109877;1239;58256;-69
2023/10/31 06:06:33;;;;;;;16.40;7.40;;;;;;;10.38;100.00;100687.55;109961;1239;58308;-68
2023/10/31 06:09:02;;;;;;;16.50;7.20;;;;;;;10.58;100.00;100689.41;109734;1239;62868;-69
2023/10/31 06:11:31;;;;;;;15.80;7.60;;;;;;;10.77;100.00;100684.38;109936;1238;72970;-68
2023/10/31 06:13:59;;;;;;;19.20;7.10;;;;;;;10.94;100.00;100685.00;109854;1238;60573;-68
2023/10/31 06:16:28;;;;;;;26.90;9.20;;;;;;;11.27;100.00;100681.84;109940;1238;63458;-69
2023/10/31 06:18:57;;;;;;;16.60;6.90;;;;;;;11.52;100.00;100679.25;109761;1240;58111;-69
2023/10/31 06:21:26;;;;;;;14.40;5.50;;;;;;;11.88;100.00;100685.55;109997;1240;57737;-68
2023/10/31 06:23:54;;;;;;;13.00;5.30;;;;;;;12.15;100.00;100681.68;109989;1238;74294;-69
2023/10/31 06:26:23;;;;;;;14.50;5.50;;;;;;;12.32;100.00;100678.64;109875;1238;61028;-71
2023/10/31 06:28:52;;;;;;;16.20;5.30;;;;;;;12.54;100.00;100679.27;109942;1238;60562;-68
2023/10/31 06:31:41;;;;;;;15.40;4.70;;;;;;;12.71;100.00;100668.45;109989;1238;73799;-69
2023/10/31 06:34:10;;;;;;;14.00;5.60;;;;;;;12.94;100.00;100671.08;109983;1239;63364;-68
2023/10/31 06:36:38;;;;;;;13.90;5.60;;;;;;;13.08;100.00;100671.83;109877;1239;60581;-67
2023/10/31 06:39:07;;;;;;;11.50;5.30;;;;;;;13.23;100.00;100668.67;109909;1238;65079;-68
2023/10/31 06:41:36;;;;;;;15.30;6.10;;;;;;;13.46;100.00;100664.95;109940;1237;70564;-69
2023/10/31 06:44:05;;;;;;;14.00;5.70;;;;;;;13.64;100.00;100669.26;109896;1237;69364;-70
2023/10/31 06:46:33;;;;;;;11.80;5.20;;;;;;;13.91;100.00;100668.14;109860;1238;74059;-68
2023/10/31 06:49:02;;;;;;;11.30;5.60;;;;;;;14.08;100.00;100665.39;109871;1238;57844;-68
2023/10/31 06:51:31;;;;;;;15.40;4.90;;;;;;;14.23;100.00;100666.23;109954;1238;58325;-69
2023/10/31 06:54:00;;;;;;;14.50;5.10;;;;;;;14.39;100.00;100667.05;109946;1237;63075;-68
2023/10/31 06:56:29;;;;;;;10.80;4.50;;;;;;;14.52;100.00;100662.69;109805;1237;63009;-68
2023/10/31 06:58:58;;;;;;;11.10;4.50;;;;;;;14.71;100.00;100657.52;109917;1238;70942;-69
2023/10/31 07:01:27;;;;;;;11.10;4.80;;;;;;;14.86;100.00;100653.52;109819;1238;74049;-69
2023/10/31 07:03:55;;;;;;;10.30;4.70;;;;;;;15.01;100.00;100653.96;109815;1239;61532;-68
2023/10/31 07:06:24;;;;;;;11.00;4.40;;;;;;;15.12;100.00;100644.30;109915;1238;60788;-69
2023/10/31 07:08:53;;;;;;;7.60;4.50;;;;;;;15.26;100.00;100640.73;110113;1237;64120;-69
2023/10/31 07:11:22;;;;;;;10.60;4.00;;;;;;;15.36;100.00;100637.45;109989;1238;71322;-69
2023/10/31 07:13:50;;;;;;;11.80;4.20;;;;;;;15.59;100.00;100637.23;109941;1239;70625;-68
2023/10/31 07:16:19;;;;;;;12.80;4.30;;;;;;;15.73;100.00;100637.77;109824;1238;74158;-69
2023/10/31 07:18:48;;;;;;;12.50;5.00;;;;;;;15.94;100.00;100635.94;109903;1239;61911;-68
2023/10/31 07:21:17;;;;;;;9.60;3.90;;;;;;;16.16;100.00;100635.50;109903;1238;57841;-69
2023/10/31 07:23:46;;;;;;;7.20;3.50;;;;;;;16.28;100.00;100636.98;109910;1238;63530;-68
2023/10/31 07:26:15;;;;;;;12.50;4.00;;;;;;;16.43;100.00;100632.66;109859;1238;60620;-69
2023/10/31 07:28:44;;;;;;;9.70;3.90;;;;;;;16.62;100.00;100630.96;109631;1238;333434;-69
2023/10/31 07:31:13;;;;;;;9.50;4.20;;;;;;;16.77;100.00;100630.59;109898;1238;73690;-69
2023/10/31 07:33:45;;;;;;;11.20;4.80;;;;;;;16.95;100.00;100630.50;109931;1239;60555;-68
2023/10/31 07:36:14;;;;;;;15.00;4.40;;;;;;;17.08;100.00;100625.73;109772;1238;61164;-69
2023/10/31 07:38:43;;;;;;;9.10;4.20;;;;;;;17.19;100.00;100620.07;110056;1237;74712;-69
2023/10/31 07:41:12;;;;;;;14.90;4.70;;;;;;;17.46;100.00;100618.70;110062;1238;72483;-71
2023/10/31 07:43:41;;;;;;;11.60;4.40;;;;;;;17.61;100.00;100618.56;109954;1237;60303;-69
2023/10/31 07:46:10;;;;;;;8.20;4.10;;;;;;;17.72;100.00;100615.13;109994;1238;63209;-70
2023/10/31 07:48:39;;;;;;;10.50;4.20;;;;;;;17.88;100.00;100608.75;109890;1238;58321;-69
2023/10/31 07:51:08;;;;;;;14.60;4.20;;;;;;;18.00;100.00;100605.32;109942;1238;58305;-69
2023/10/31 07:53:37;;;;;;;9.70;4.50;;;;;;;18.13;100.00;100604.98;110122;1238;63963;-70
2023/10/31 07:56:15;;;;;;;9.40;3.50;;;;;;;18.28;99.46;100607.42;110051;1238;61641;-70
2023/10/31 07:58:44;;;;;;;9.20;3.80;;;;;;;18.47;98.28;100597.13;109480;1242;69907;-71
2023/10/31 08:01:13;;;;;;;7.70;3.50;;;;;;;18.66;96.33;100593.75;109531;1241;74277;-69
2023/10/31 08:03:42;;;;;;;11.10;3.50;;;;;;;18.79;94.37;100595.13;109720;1239;59946;-69
2023/10/31 08:06:11;;;;;;;7.60;3.40;;;;;;;18.88;94.38;100594.33;109627;1237;58325;-70
2023/10/31 08:08:40;;;;;;;8.60;3.80;;;;;;;18.95;93.20;100587.58;109765;1238;63520;-70
2023/10/31 08:11:10;;;;;;;10.80;3.50;;;;;;;19.00;92.73;100589.13;109396;1240;61798;-72
2023/10/31 08:13:40;;;;;;;11.30;3.70;;;;;;;19.08;92.55;100588.57;109589;1238;59360;-70
2023/10/31 08:16:09;;;;;;;11.40;3.60;;;;;;;19.24;91.07;100582.44;109724;1238;74375;-70
2023/10/31 08:18:38;;;;;;;12.40;4.00;;;;;;;19.41;91.50;100583.19;109871;1238;61122;-71
2023/10/31 08:21:07;;;;;;;13.60;4.10;;;;;;;19.46;92.13;100582.36;109856;1238;57705;-69
2023/10/31 08:23:36;;;;;;;11.50;3.70;;;;;;;19.44;91.23;100576.08;109540;1242;63660;-70
2023/10/31 08:26:05;;;;;;;9.90;3.90;;;;;;;19.57;91.09;100576.48;109640;1238;61619;-70
2023/10/31 08:28:34;;;;;;;10.10;3.50;;;;;;;19.71;89.67;100568.91;109542;1239;60271;-69
2023/10/31 08:31:03;;;;;;;8.30;3.40;;;;;;;19.81;88.05;100564.55;109587;1238;73520;-69
2023/10/31 08:33:32;;;;;;;10.50;3.80;;;;;;;19.96;87.95;100558.89;109756;1239;58801;-69
2023/10/31 08:36:01;;;;;;;8.50;4.00;;;;;;;20.03;86.02;100555.30;109835;1239;58235;-69
2023/10/31 08:38:30;;;;;;;13.00;4.60;;;;;;;20.13;85.43;100551.15;109868;1240;63125;-69
2023/10/31 08:41:00;;;;;;;10.50;3.70;;;;;;;20.21;84.64;100545.50;109853;1238;60875;-69
2023/10/31 08:43:29;;;;;;;7.20;3.40;;;;;;;20.35;84.67;100538.64;109885;1239;70417;-70
2023/10/31 08:45:58;;;;;;;9.60;3.80;;;;;;;20.50;83.24;100530.45;109987;1238;74598;-70
2023/10/31 08:48:27;;;;;;;10.00;3.20;;;;;;;20.55;81.37;100517.85;109982;1237;61606;-71
2023/10/31 08:50:57;;;;;;;10.40;3.20;;;;;;;20.69;79.32;100515.58;109929;1238;61082;-69
2023/10/31 08:53:27;;;;;;;6.00;3.00;;;;;;;20.87;79.01;100510.32;109966;1238;64545;-69
2023/10/31 08:55:56;;;;;;;11.20;3.40;;;;;;;20.98;77.91;100507.70;109776;1238;61662;-69
2023/10/31 08:58:25;;;;;;;10.10;3.60;;;;;;;21.11;76.78;100504.71;110135;1238;71481;-70
2023/10/31 09:00:54;;;;;;;8.70;3.30;;;;;;;21.27;76.46;100499.43;110048;1238;63815;-70
2023/10/31 09:03:23;;;;;;;8.20;3.90;;;;;;;21.33;75.23;100492.49;109945;1241;57902;-71
2023/10/31 09:05:52;;;;;;;6.40;3.00;;;;;;;21.42;75.07;100492.35;110107;1240;57747;-71
2023/10/31 09:08:21;;;;;;;9.30;3.30;;;;;;;21.45;74.78;100482.45;110077;1238;74328;-70
2023/10/31 09:10:50;;;;;;;8.50;3.10;;;;;;;21.61;75.05;100484.22;109974;1238;62981;-69
2023/10/31 09:13:19;;;;;;;13.30;3.40;;;;;;;21.79;73.58;100477.58;109961;1238;59994;-70
2023/10/31 09:15:49;;;;;;;9.10;3.20;;;;;;;21.95;73.34;100471.48;110082;1238;62322;-71
2023/10/31 09:18:18;;;;;;;10.40;3.20;;;;;;;22.10;71.47;100461.45;109998;1238;61664;-70
2023/10/31 09:20:47;;;;;;;13.40;3.80;;;;;;;22.19;70.94;100454.12;110030;1238;61088;-69
2023/10/31 09:23:17;;;;;;;8.40;3.40;;;;;;;22.25;70.75;100452.16;110106;1238;65802;-71
2023/10/31 09:25:46;;;;;;;10.20;3.50;;;;;;;22.31;69.98;100446.27;110076;1238;71826;-69
2023/10/31 09:28:15;;;;;;;9.90;3.30;;;;;;;22.30;70.56;100441.77;109756;1242;59702;-70
2023/10/31 09:30:45;;;;;;;12.30;3.90;;;;;;;22.34;71.39;100432.49;109950;1241;73052;-71
2023/10/31 09:33:14;;;;;;;10.30;3.30;;;;;;;22.52;70.61;100432.05;109921;1239;60754;-71
2023/10/31 09:35:44;;;;;;;27.80;4.80;;;;;;;22.54;69.64;100417.59;109741;1242;58165;-70
2023/10/31 09:38:12;;;;;;;16.70;3.60;;;;;;;22.55;69.77;100410.02;110032;1238;63778;-71
2023/10/31 09:40:41;;;;;;;8.70;3.50;;;;;;;22.64;70.03;100404.09;110096;1240;60881;-71
2023/10/31 09:43:10;;;;;;;13.50;3.80;;;;;;;22.67;69.76;100384.00;110142;1240;59180;-69
2023/10/31 09:45:39;;;;;;;11.20;3.90;;;;;;;22.71;69.06;100380.02;110120;1239;63268;-70
2023/10/31 09:48:08;;;;;;;14.80;3.50;;;;;;;22.85;68.65;100379.11;110108;1240;57848;-70
2023/10/31 09:50:38;;;;;;;9.50;3.50;;;;;;;22.86;68.57;100368.23;110111;1240;58345;-71
2023/10/31 09:53:08;;;;;;;6.40;2.60;;;;;;;22.94;68.31;100359.67;110107;1238;62921;-71
2023/10/31 09:55:38;;;;;;;15.30;3.70;;;;;;;22.97;67.82;100356.66;109984;1241;60599;-70
2023/10/31 09:58:08;;;;;;;6.00;2.70;;;;;;;22.95;68.09;100353.00;109964;1241;59980;-70
2023/10/31 10:00:40;;;;;;;8.70;3.30;;;;;;;23.08;68.16;100351.85;109802;1242;63257;-72
2023/10/31 10:03:10;;;;;;;7.90;3.40;;;;;;;23.13;67.94;100354.58;109757;1239;57975;-72
2023/10/31 10:05:40;;;;;;;7.70;3.10;;;;;;;23.17;67.58;100355.48;110110;1238;58312;-70
2023/10/31 10:08:10;;;;;;;5.50;2.90;;;;;;;23.27;66.99;100346.94;110012;1238;74256;-71
2023/10/31 10:10:39;;;;;;;10.00;3.10;;;;;;;23.35;67.19;100348.75;109689;1238;72508;-69
2023/10/31 10:13:08;;;;;;;14.40;4.10;;;;;;;23.44;66.23;100342.08;109870;1238;70114;-69
2023/10/31 10:16:04;;;;;;;8.90;3.50;;;;;;;23.74;65.14;100344.29;110090;1238;74181;-69
2023/10/31 10:18:39;;;;;;;13.20;4.10;;;;;;;24.03;64.07;100340.20;110042;1238;61258;-69
2023/10/31 10:21:08;;;;;;;8.00;3.50;;;;;;;24.02;63.26;100334.84;109691;1244;61785;-71
2023/10/31 10:23:37;;;;;;;15.80;3.60;;;;;;;24.27;62.79;100327.32;110008;1238;63400;-69
2023/10/31 10:26:06;;;;;;;10.90;3.70;;;;;;;24.32;60.72;100327.27;109933;1238;71503;-70
2023/10/31 10:28:36;;;;;;;11.60;3.70;;;;;;;24.33;60.59;100313.73;110046;1238;68630;-70
2023/10/31 10:31:06;;;;;;;6.80;3.00;;;;;;;24.49;60.74;100313.80;109824;1238;72889;-71
2023/10/31 10:33:35;;;;;;;10.60;3.20;;;;;;;24.50;59.35;100303.27;110028;1241;58402;-69
2023/10/31 10:36:04;;;;;;;9.80;3.20;;;;;;;24.54;58.22;100299.89;110088;1238;60771;-70
2023/10/31 10:38:35;;;;;;;7.80;3.30;;;;;;;24.60;59.25;100292.22;109838;1242;64247;-71
2023/10/31 10:41:07;;;;;;;5.80;2.90;;;;;;;25.01;57.08;100290.02;110042;1238;72067;-71
2023/10/31 10:43:39;;;;;;;8.70;3.40;;;;;;;25.17;56.60;100288.77;109909;1238;60837;-70
2023/10/31 10:46:12;;;;;;;6.30;2.80;;;;;;;25.23;55.92;100285.66;109947;1238;73452;-70
2023/10/31 10:48:47;;;;;;;8.30;3.00;;;;;;;25.33;53.08;100278.72;110101;1238;60652;-69
2023/10/31 10:51:28;;;;;;;13.00;3.10;;;;;;;25.41;51.72;100280.47;109998;1238;60745;-71
2023/10/31 10:54:03;;;;;;;18.50;3.30;;;;;;;25.61;50.27;100281.87;110074;1240;63175;-72
2023/10/31 10:56:44;;;;;;;11.70;2.80;;;;;;;25.95;49.21;100273.40;109970;1239;60905;-70
2023/10/31 10:59:21;;;;;;;16.20;3.00;;;;;;;26.23;48.76;100269.71;109882;1242;59225;-69
2023/10/31 11:01:52;;;;;;;9.90;3.20;;;;;;;25.95;48.35;100258.46;109785;1238;72121;-70
2023/10/31 11:04:22;;;;;;;6.90;2.50;;;;;;;26.42;47.65;100253.22;109796;1242;61478;-69
2023/10/31 11:06:51;;;;;;;14.90;2.90;;;;;;;26.31;47.47;100250.84;110020;1238;57688;-70
2023/10/31 11:09:21;;;;;;;10.60;2.50;;;;;;;26.22;46.97;100247.36;109737;1238;64165;-71
2023/10/31 11:11:52;;;;;;;17.10;3.70;;;;;;;26.67;44.88;100239.03;109942;1239;61506;-70
2023/10/31 11:14:22;;;;;;;14.10;2.80;;;;;;;26.67;44.91;100234.20;109961;1240;59914;-71
2023/10/31 11:16:55;;;;;;;11.00;2.50;;;;;;;26.46;45.12;100237.44;109820;1241;74172;-70
2023/10/31 11:19:24;;;;;;;10.40;2.80;;;;;;;26.39;45.35;100225.29;109888;1241;60557;-71
2023/10/31 11:22:01;;;;;;;6.40;2.10;;;;;;;26.56;45.04;100225.20;109824;1241;57775;-70